Time;durP1;ratioP1;P1;durP2;ratioP2;P2;SDS_P1;SDS_P2;PMS_P1;PMS_P2;Temp;Humidity;BMP_temperature;BMP_pressure;BME280_temperature;BME280_humidity;BME280_pressure;Samples;Min_cycle;Max_cycle;Signal;HPM_P1;HPM_P2
2023/10/21 00:02:13;;;;;;;30.45;6.68;;;15.90;99.90;;;;;;5066904;28;20060;-54
2023/10/21 00:04:39;;;;;;;31.13;6.72;;;16.00;99.90;;;;;;5066904;28;20036;-54
2023/10/21 00:07:04;;;;;;;30.33;6.70;;;15.90;99.90;;;;;;5068140;28;20175;-54
2023/10/21 00:09:30;;;;;;;28.20;6.25;;;15.90;99.90;;;;;;5068209;28;20013;-54
2023/10/21 00:11:55;;;;;;;27.45;5.97;;;15.90;99.90;;;;;;5050197;28;20029;-54
2023/10/21 00:14:21;;;;;;;21.55;5.53;;;15.90;99.90;;;;;;5067021;28;20044;-54
2023/10/21 00:16:48;;;;;;;27.58;6.30;;;15.80;99.90;;;;;;5068265;28;20120;-54
2023/10/21 00:19:14;;;;;;;24.88;5.45;;;15.80;99.90;;;;;;5049958;28;20024;-54
2023/10/21 00:21:39;;;;;;;27.55;5.32;;;15.90;99.90;;;;;;5066425;28;20041;-54
2023/10/21 00:24:06;;;;;;;19.17;5.13;;;15.80;99.90;;;;;;5066639;28;20041;-54
2023/10/21 00:26:42;;;;;;;25.35;5.63;;;15.70;99.90;;;;;;5067963;28;20060;-54
2023/10/21 00:29:07;;;;;;;20.75;5.00;;;15.70;99.90;;;;;;5050199;28;20074;-54
2023/10/21 00:31:33;;;;;;;29.02;5.45;;;15.80;99.90;;;;;;5050011;28;20040;-54
2023/10/21 00:33:58;;;;;;;24.15;5.55;;;15.70;99.90;;;;;;5067652;28;20381;-54
2023/10/21 00:36:24;;;;;;;23.75;5.80;;;15.70;99.90;;;;;;5067641;28;20040;-54
2023/10/21 00:38:49;;;;;;;33.90;5.95;;;15.70;99.90;;;;;;5066535;28;20366;-54
2023/10/21 00:41:15;;;;;;;23.30;4.97;;;15.70;99.90;;;;;;5049433;28;20044;-54
2023/10/21 00:43:40;;;;;;;22.42;5.10;;;15.70;99.90;;;;;;5065527;28;20056;-54
2023/10/21 00:46:10;;;;;;;24.98;5.63;;;15.70;99.90;;;;;;5049392;28;20029;-54
2023/10/21 00:48:36;;;;;;;20.95;4.82;;;15.70;99.90;;;;;;5049534;28;20032;-54
2023/10/21 00:51:02;;;;;;;17.92;5.05;;;15.70;99.90;;;;;;5049322;28;20440;-54
2023/10/21 00:53:28;;;;;;;21.00;4.45;;;15.60;99.90;;;;;;5049485;28;20025;-54
2023/10/21 00:55:53;;;;;;;20.35;5.10;;;15.60;99.90;;;;;;5049059;28;20029;-54
2023/10/21 00:58:19;;;;;;;17.20;4.60;;;15.70;99.90;;;;;;5065934;28;20025;-54
2023/10/21 01:00:45;;;;;;;22.40;5.38;;;15.60;99.90;;;;;;5032733;28;20029;-54
2023/10/21 01:03:10;;;;;;;13.63;4.60;;;15.60;99.90;;;;;;5065896;28;20043;-54
2023/10/21 01:05:36;;;;;;;26.90;4.75;;;15.60;99.90;;;;;;5048932;28;20021;-54
2023/10/21 01:08:02;;;;;;;18.40;4.30;;;15.60;99.90;;;;;;5065779;28;20043;-54
2023/10/21 01:10:28;;;;;;;14.65;4.20;;;15.60;99.90;;;;;;5066996;28;20488;-54
2023/10/21 01:12:54;;;;;;;20.65;4.75;;;15.60;99.90;;;;;;5051801;28;20021;-54
2023/10/21 01:15:19;;;;;;;20.75;3.67;;;15.60;99.90;;;;;;5067137;28;20059;-54
2023/10/21 01:17:51;;;;;;;17.50;3.70;;;15.60;99.90;;;;;;5049050;28;20051;-54
2023/10/21 01:20:17;;;;;;;14.98;3.80;;;15.60;99.90;;;;;;5066650;28;20032;-54
2023/10/21 01:22:45;;;;;;;16.60;3.97;;;15.60;99.90;;;;;;5048306;28;20037;-54
2023/10/21 01:25:11;;;;;;;11.07;3.28;;;15.60;99.90;;;;;;5065551;28;20032;-54
2023/10/21 01:27:37;;;;;;;17.05;4.20;;;15.60;99.90;;;;;;5066988;28;20093;-54
2023/10/21 01:30:05;;;;;;;15.48;4.10;;;15.60;99.90;;;;;;5065753;28;20028;-54
2023/10/21 01:32:31;;;;;;;13.95;3.63;;;15.50;99.90;;;;;;5032689;28;20036;-54
2023/10/21 01:34:57;;;;;;;16.40;3.67;;;15.60;99.90;;;;;;5067276;28;20029;-54
2023/10/21 01:37:22;;;;;;;13.07;3.55;;;15.60;99.90;;;;;;5068023;28;20048;-54
2023/10/21 01:39:48;;;;;;;17.20;3.70;;;15.60;99.90;;;;;;5065335;28;20033;-54
2023/10/21 01:42:13;;;;;;;10.32;3.33;;;15.60;99.90;;;;;;5065102;28;20053;-54
2023/10/21 01:44:39;;;;;;;15.70;3.20;;;15.60;99.90;;;;;;5065235;28;20029;-54
2023/10/21 01:47:05;;;;;;;9.23;3.40;;;15.60;99.90;;;;;;5066386;28;20029;-54
2023/10/21 01:49:31;;;;;;;14.52;3.65;;;15.60;99.90;;;;;;5066357;28;20017;-54
2023/10/21 01:51:57;;;;;;;13.68;3.80;;;15.60;99.90;;;;;;5065027;28;20037;-54
2023/10/21 01:54:22;;;;;;;12.68;3.20;;;15.60;99.90;;;;;;5048214;28;20078;-54
2023/10/21 01:56:48;;;;;;;12.45;3.08;;;15.60;99.90;;;;;;5065332;28;20030;-58
2023/10/21 01:59:14;;;;;;;12.95;3.50;;;15.60;99.90;;;;;;5048492;28;20020;-57
2023/10/21 02:01:40;;;;;;;12.50;3.38;;;15.60;99.90;;;;;;5064770;28;20044;-57
2023/10/21 02:04:06;;;;;;;22.70;3.53;;;15.60;99.90;;;;;;5048408;28;20028;-58
2023/10/21 02:06:31;;;;;;;10.90;3.22;;;15.60;99.90;;;;;;5066098;28;20029;-57
2023/10/21 02:08:57;;;;;;;11.60;3.55;;;15.60;99.90;;;;;;5064719;28;20112;-57
2023/10/21 02:11:24;;;;;;;7.32;2.95;;;15.60;99.90;;;;;;5066098;28;20044;-57
2023/10/21 02:13:49;;;;;;;12.52;2.78;;;15.60;99.90;;;;;;5065715;28;20017;-57
2023/10/21 02:16:15;;;;;;;15.73;3.30;;;15.60;99.90;;;;;;5048230;28;20040;-57
2023/10/21 02:18:41;;;;;;;11.95;3.30;;;15.60;99.90;;;;;;5031473;28;20052;-57
2023/10/21 02:21:07;;;;;;;17.52;3.17;;;15.60;99.90;;;;;;5031224;28;20051;-57
2023/10/21 02:23:33;;;;;;;11.77;2.88;;;15.60;99.90;;;;;;5047912;28;20049;-57
2023/10/21 02:26:08;;;;;;;9.73;2.90;;;15.60;99.90;;;;;;5064619;28;20033;-57
2023/10/21 02:28:34;;;;;;;9.00;2.95;;;15.60;99.90;;;;;;5065849;28;20462;-57
2023/10/21 02:31:03;;;;;;;8.48;3.00;;;15.60;99.90;;;;;;5064686;28;20041;-57
2023/10/21 02:33:28;;;;;;;6.13;2.53;;;15.60;99.90;;;;;;5048284;28;20081;-57
2023/10/21 02:35:55;;;;;;;16.38;3.33;;;15.60;99.90;;;;;;5064708;28;20041;-57
2023/10/21 02:38:21;;;;;;;8.25;2.70;;;15.60;99.90;;;;;;5065811;28;20032;-57
2023/10/21 02:40:48;;;;;;;8.13;2.10;;;15.60;99.90;;;;;;5064694;28;20029;-57
2023/10/21 02:43:14;;;;;;;8.00;2.05;;;15.60;99.90;;;;;;5047786;28;20032;-57
2023/10/21 02:45:39;;;;;;;9.07;2.45;;;15.60;99.90;;;;;;5064378;28;20424;-57
2023/10/21 02:48:05;;;;;;;8.55;2.63;;;15.50;99.90;;;;;;5064362;28;20036;-57
2023/10/21 02:50:30;;;;;;;8.18;2.13;;;15.60;99.90;;;;;;5064480;28;20524;-57
2023/10/21 02:52:56;;;;;;;8.18;2.28;;;15.60;99.90;;;;;;5064469;28;20108;-57
2023/10/21 02:55:21;;;;;;;7.53;2.45;;;15.60;99.90;;;;;;5047869;28;20042;-57
2023/10/21 02:57:47;;;;;;;7.70;2.08;;;15.60;99.90;;;;;;5065719;28;20021;-57
2023/10/21 03:00:15;;;;;;;7.88;2.28;;;15.60;99.90;;;;;;5065677;28;20126;-57
2023/10/21 03:02:44;;;;;;;7.32;1.60;;;15.60;99.80;;;;;;5047658;28;20100;-57
2023/10/21 03:05:10;;;;;;;8.38;2.13;;;15.50;99.80;;;;;;5031151;28;20594;-57
2023/10/21 03:07:35;;;;;;;7.68;1.60;;;15.60;99.80;;;;;;5050512;28;20025;-57
2023/10/21 03:10:02;;;;;;;6.47;1.77;;;15.60;99.80;;;;;;5068573;28;20017;-58
2023/10/21 03:12:28;;;;;;;5.20;1.38;;;15.60;99.80;;;;;;5069389;28;20024;-57
2023/10/21 03:14:55;;;;;;;4.13;1.58;;;15.50;99.70;;;;;;5051219;28;20087;-57
2023/10/21 03:17:20;;;;;;;3.20;1.40;;;15.50;99.80;;;;;;5067982;28;20037;-58
2023/10/21 03:19:46;;;;;;;4.68;1.40;;;15.50;99.80;;;;;;5069235;28;20356;-58
2023/10/21 03:22:12;;;;;;;4.90;1.20;;;15.60;99.80;;;;;;5067667;28;20421;-58
2023/10/21 03:24:37;;;;;;;4.65;1.25;;;15.50;99.80;;;;;;5067763;28;20040;-57
2023/10/21 03:27:03;;;;;;;2.05;1.20;;;15.50;99.80;;;;;;5069045;28;20044;-58
2023/10/21 03:29:28;;;;;;;3.50;1.10;;;15.50;99.90;;;;;;5068889;28;20025;-57
2023/10/21 03:31:54;;;;;;;4.43;0.98;;;15.50;99.90;;;;;;5050959;28;20036;-57
2023/10/21 03:34:19;;;;;;;2.28;0.70;;;15.50;99.90;;;;;;5068806;28;20076;-57
2023/10/21 03:36:45;;;;;;;3.90;1.08;;;15.50;99.90;;;;;;5068749;28;20033;-58
2023/10/21 03:39:11;;;;;;;2.78;1.05;;;15.50;99.90;;;;;;5068786;28;20099;-58
2023/10/21 03:41:37;;;;;;;1.98;0.98;;;15.50;99.90;;;;;;5068746;28;20041;-58
2023/10/21 03:44:03;;;;;;;4.97;1.00;;;15.50;99.90;;;;;;5050597;28;20041;-58
2023/10/21 03:46:30;;;;;;;1.38;0.68;;;15.50;99.90;;;;;;5068666;28;20037;-58
2023/10/21 03:48:56;;;;;;;1.90;0.77;;;15.50;99.90;;;;;;5068509;28;20354;-58
2023/10/21 03:51:21;;;;;;;1.98;0.80;;;15.50;99.90;;;;;;5067213;28;20032;-58
2023/10/21 03:53:47;;;;;;;3.03;0.82;;;15.50;99.90;;;;;;5067224;28;20036;-58
2023/10/21 03:56:13;;;;;;;2.08;0.98;;;15.50;99.90;;;;;;5067250;28;20087;-58
2023/10/21 03:58:40;;;;;;;2.22;1.02;;;15.50;99.90;;;;;;5050317;28;20059;-58
2023/10/21 04:01:06;;;;;;;1.92;0.90;;;15.50;99.90;;;;;;5068436;28;20165;-58
2023/10/21 04:03:32;;;;;;;3.63;1.08;;;15.50;99.90;;;;;;5068397;28;20032;-59
2023/10/21 04:05:57;;;;;;;2.65;0.90;;;15.50;99.90;;;;;;5068278;28;20071;-58
2023/10/21 04:08:24;;;;;;;3.03;1.30;;;15.50;99.90;;;;;;5067049;28;20017;-58
2023/10/21 04:10:49;;;;;;;4.45;1.20;;;15.50;99.90;;;;;;5050089;28;20374;-58
2023/10/21 04:13:15;;;;;;;3.17;1.20;;;15.50;99.90;;;;;;5066814;28;20060;-58
2023/10/21 04:15:41;;;;;;;2.60;1.40;;;15.50;99.90;;;;;;5050178;28;20048;-58
2023/10/21 04:18:06;;;;;;;4.30;1.30;;;15.50;99.90;;;;;;5049193;28;20017;-58
2023/10/21 04:20:32;;;;;;;2.92;1.25;;;15.60;99.90;;;;;;5067487;28;20104;-57
2023/10/21 04:22:58;;;;;;;5.05;1.63;;;15.50;99.90;;;;;;5066740;28;20044;-58
2023/10/21 04:25:23;;;;;;;5.72;1.35;;;15.50;99.90;;;;;;5067784;28;20025;-58
2023/10/21 04:27:49;;;;;;;3.72;1.48;;;15.50;99.90;;;;;;5049966;28;20203;-58
2023/10/21 04:30:15;;;;;;;1.52;1.02;;;15.50;99.90;;;;;;5049721;28;20025;-58
2023/10/21 04:32:41;;;;;;;3.00;1.20;;;15.50;99.90;;;;;;5050000;28;20037;-58
2023/10/21 04:35:08;;;;;;;2.28;1.30;;;15.50;99.90;;;;;;5049525;28;20044;-58
2023/10/21 04:37:34;;;;;;;5.03;1.58;;;15.50;99.90;;;;;;5066450;28;20025;-58
2023/10/21 04:39:59;;;;;;;9.23;1.50;;;15.50;99.90;;;;;;5066302;28;20055;-58
2023/10/21 04:42:25;;;;;;;4.40;1.15;;;15.40;99.90;;;;;;5067626;28;20029;-58
2023/10/21 04:44:51;;;;;;;2.83;1.20;;;15.50;99.90;;;;;;5066209;28;20056;-58
2023/10/21 04:47:17;;;;;;;4.03;1.23;;;15.50;99.90;;;;;;5049552;28;20044;-58
2023/10/21 04:49:45;;;;;;;2.08;1.27;;;15.50;99.90;;;;;;5066094;28;20033;-59
2023/10/21 04:52:11;;;;;;;4.65;1.30;;;15.50;99.90;;;;;;5049853;28;20053;-58
2023/10/21 04:54:37;;;;;;;1.77;0.95;;;15.50;99.90;;;;;;5065994;28;20050;-58
2023/10/21 04:57:02;;;;;;;2.90;0.90;;;15.50;99.90;;;;;;5066027;28;20029;-57
2023/10/21 04:59:28;;;;;;;2.78;1.20;;;15.50;99.90;;;;;;5049234;28;20033;-58
2023/10/21 05:01:53;;;;;;;3.22;1.50;;;15.50;99.90;;;;;;5049396;28;20465;-58
2023/10/21 05:04:19;;;;;;;2.90;1.33;;;15.50;99.90;;;;;;5067199;28;20040;-59
2023/10/21 05:06:44;;;;;;;6.40;1.33;;;15.50;99.90;;;;;;5049395;28;20461;-58
2023/10/21 05:09:10;;;;;;;1.83;1.02;;;15.50;99.90;;;;;;5066850;28;20032;-58
2023/10/21 05:11:36;;;;;;;3.90;1.63;;;15.40;99.90;;;;;;5049089;28;20017;-58
2023/10/21 05:14:01;;;;;;;2.00;1.40;;;15.50;99.90;;;;;;5065647;28;20033;-58
2023/10/21 05:16:27;;;;;;;7.68;1.77;;;15.50;99.90;;;;;;5066905;28;20029;-58
2023/10/21 05:18:52;;;;;;;3.33;1.70;;;15.50;99.90;;;;;;5048940;28;20056;-58
2023/10/21 05:21:18;;;;;;;7.50;1.70;;;15.50;99.90;;;;;;5066409;28;20037;-58
2023/10/21 05:23:43;;;;;;;4.97;1.35;;;15.50;99.90;;;;;;5065558;28;20025;-58
2023/10/21 05:26:09;;;;;;;9.20;1.50;;;15.50;99.90;;;;;;5065434;28;20105;-58
2023/10/21 05:28:34;;;;;;;3.35;1.77;;;15.40;99.90;;;;;;5066685;28;20025;-58
2023/10/21 05:31:03;;;;;;;3.92;1.42;;;15.40;99.90;;;;;;5066309;28;20063;-58
2023/10/21 05:33:29;;;;;;;2.45;0.98;;;15.40;99.90;;;;;;5065372;28;20025;-58
2023/10/21 05:35:58;;;;;;;2.88;1.40;;;15.40;99.90;;;;;;5065165;28;20036;-58
2023/10/21 05:38:24;;;;;;;5.20;1.60;;;15.40;99.90;;;;;;5065597;28;20037;-58
2023/10/21 05:40:50;;;;;;;5.63;1.50;;;15.50;99.90;;;;;;5048500;28;20037;-58
2023/10/21 05:43:15;;;;;;;3.25;1.50;;;15.40;99.90;;;;;;5049107;28;20085;-58
2023/10/21 05:45:41;;;;;;;2.13;1.50;;;15.40;99.90;;;;;;5049697;28;20021;-58
2023/10/21 05:48:06;;;;;;;3.88;1.50;;;15.40;99.90;;;;;;5049320;28;20080;-58
2023/10/21 05:50:32;;;;;;;1.73;1.00;;;15.40;99.90;;;;;;5066896;28;20401;-58
2023/10/21 05:52:58;;;;;;;2.00;1.20;;;15.40;99.90;;;;;;5066364;28;20024;-58
2023/10/21 05:55:23;;;;;;;3.30;1.30;;;15.40;99.90;;;;;;5065114;28;20431;-58
2023/10/21 05:57:49;;;;;;;5.18;1.33;;;15.40;99.90;;;;;;5066339;28;20053;-58
2023/10/21 06:00:15;;;;;;;2.63;1.27;;;15.40;99.90;;;;;;5048159;28;20100;-58
2023/10/21 06:02:41;;;;;;;3.33;1.27;;;15.40;99.90;;;;;;5048393;28;20029;-58
2023/10/21 06:05:07;;;;;;;1.42;1.20;;;15.30;99.90;;;;;;5048097;28;20044;-58
2023/10/21 06:07:32;;;;;;;4.78;1.42;;;15.40;99.90;;;;;;5048200;28;20036;-58
2023/10/21 06:09:58;;;;;;;4.80;1.52;;;15.40;99.90;;;;;;5048265;28;20031;-58
2023/10/21 06:12:24;;;;;;;3.85;1.20;;;15.30;99.90;;;;;;5066154;28;20044;-58
2023/10/21 06:14:50;;;;;;;2.80;1.30;;;15.30;99.90;;;;;;5065942;28;20036;-58
2023/10/21 06:17:16;;;;;;;2.47;1.33;;;15.30;99.90;;;;;;5048179;28;20040;-58
2023/10/21 06:19:43;;;;;;;2.67;1.20;;;15.30;99.90;;;;;;5064676;28;20044;-58
2023/10/21 06:22:09;;;;;;;2.55;1.20;;;15.30;99.90;;;;;;5066416;28;20041;-58
2023/10/21 06:24:34;;;;;;;1.73;1.08;;;15.30;99.90;;;;;;5048345;28;20039;-58
2023/10/21 06:27:00;;;;;;;3.85;1.45;;;15.20;99.90;;;;;;5048085;28;20044;-58
2023/10/21 06:29:26;;;;;;;1.33;1.00;;;15.20;99.90;;;;;;5064678;28;20032;-58
2023/10/21 06:31:52;;;;;;;5.00;1.15;;;15.20;99.90;;;;;;5064729;28;20033;-58
2023/10/21 06:34:17;;;;;;;2.65;1.00;;;15.20;99.90;;;;;;5065828;28;20473;-58
2023/10/21 06:36:43;;;;;;;1.50;1.10;;;15.20;99.90;;;;;;5048063;28;20025;-58
2023/10/21 06:39:08;;;;;;;4.10;0.95;;;15.20;99.90;;;;;;5064685;28;20104;-57
2023/10/21 06:41:34;;;;;;;1.38;1.10;;;15.20;99.90;;;;;;5048357;28;20029;-58
2023/10/21 06:44:00;;;;;;;1.70;1.00;;;15.30;99.90;;;;;;5068383;28;20029;-57
2023/10/21 06:46:27;;;;;;;3.80;0.90;;;15.30;99.90;;;;;;5068452;28;20040;-58
2023/10/21 06:48:53;;;;;;;2.47;0.90;;;15.20;99.90;;;;;;5051626;28;20024;-58
2023/10/21 06:51:19;;;;;;;1.17;0.82;;;15.20;99.90;;;;;;5068452;28;20489;-58
2023/10/21 06:53:45;;;;;;;2.80;1.10;;;15.20;99.90;;;;;;5068447;28;20044;-58
2023/10/21 06:56:13;;;;;;;1.05;0.90;;;15.20;99.90;;;;;;5068366;28;20037;-57
2023/10/21 06:58:39;;;;;;;2.40;1.00;;;15.20;99.90;;;;;;5051540;28;20071;-58
2023/10/21 07:01:05;;;;;;;1.75;1.02;;;15.20;99.90;;;;;;5051512;28;20029;-57
2023/10/21 07:03:31;;;;;;;2.08;0.88;;;15.20;99.90;;;;;;5068381;28;20469;-58
2023/10/21 07:05:57;;;;;;;1.15;0.63;;;15.20;99.90;;;;;;5069190;28;20033;-58
2023/10/21 07:08:23;;;;;;;3.17;0.77;;;15.20;99.90;;;;;;5051425;28;20385;-58
2023/10/21 07:10:49;;;;;;;2.25;0.90;;;15.20;99.90;;;;;;5068060;28;20033;-58
2023/10/21 07:13:14;;;;;;;1.52;0.80;;;15.20;99.90;;;;;;5068069;28;20032;-57
2023/10/21 07:15:40;;;;;;;2.65;0.77;;;15.20;99.90;;;;;;5093348;28;20085;-58
2023/10/21 07:18:07;;;;;;;3.00;0.90;;;15.20;99.90;;;;;;5109302;28;20532;-57
2023/10/21 07:20:33;;;;;;;1.30;0.80;;;15.30;99.90;;;;;;5074849;28;20122;-57
2023/10/21 07:22:59;;;;;;;3.53;0.85;;;15.20;99.90;;;;;;5091314;28;20036;-58
2023/10/21 07:25:24;;;;;;;2.30;0.65;;;15.20;99.90;;;;;;5071751;28;20028;-58
2023/10/21 07:27:50;;;;;;;1.52;0.63;;;15.20;99.90;;;;;;5109333;28;20066;-58
2023/10/21 07:30:15;;;;;;;2.60;0.70;;;15.20;99.90;;;;;;5074466;28;20020;-58
2023/10/21 07:32:41;;;;;;;0.90;0.68;;;15.20;99.90;;;;;;5088452;28;20032;-58
2023/10/21 07:35:07;;;;;;;1.92;0.93;;;15.20;99.90;;;;;;5109163;28;20470;-57
2023/10/21 07:37:33;;;;;;;2.35;0.70;;;15.20;99.90;;;;;;5090913;28;20039;-58
2023/10/21 07:39:58;;;;;;;1.10;0.70;;;15.30;99.90;;;;;;5109027;28;20464;-57
2023/10/21 07:42:25;;;;;;;1.08;0.70;;;15.30;99.90;;;;;;5088337;28;20035;-58
2023/10/21 07:44:51;;;;;;;1.60;0.80;;;15.30;99.90;;;;;;5054909;28;20055;-58
2023/10/21 07:47:16;;;;;;;1.85;0.80;;;15.30;99.90;;;;;;5050684;28;20036;-57
2023/10/21 07:49:42;;;;;;;1.38;0.52;;;15.30;99.90;;;;;;5050879;28;20023;-58
2023/10/21 07:52:09;;;;;;;1.30;0.75;;;15.30;99.80;;;;;;5078761;28;20036;-57
2023/10/21 07:54:37;;;;;;;1.02;0.70;;;15.30;99.80;;;;;;5090510;28;20016;-58
2023/10/21 07:57:04;;;;;;;2.63;0.63;;;15.30;99.80;;;;;;5108817;28;20036;-57
2023/10/21 07:59:29;;;;;;;0.70;0.50;;;15.30;99.80;;;;;;5087094;28;20016;-57
2023/10/21 08:01:55;;;;;;;4.07;0.65;;;15.30;99.70;;;;;;5049991;28;20029;-57
2023/10/21 08:04:21;;;;;;;1.85;0.85;;;15.40;99.70;;;;;;5066912;28;20092;-57
2023/10/21 08:06:46;;;;;;;1.23;0.50;;;15.40;99.80;;;;;;5067997;28;20461;-60
2023/10/21 08:09:15;;;;;;;2.65;0.75;;;15.40;99.80;;;;;;5067917;28;20028;-58
2023/10/21 08:11:41;;;;;;;1.25;0.70;;;15.30;99.70;;;;;;5067871;28;20041;-57
2023/10/21 08:14:07;;;;;;;7.75;1.33;;;15.30;99.80;;;;;;5050221;28;20091;-57
2023/10/21 08:16:34;;;;;;;27.52;3.38;;;15.40;99.90;;;;;;5064028;28;20036;-57
2023/10/21 08:19:00;;;;;;;18.00;2.13;;;15.40;99.90;;;;;;5069252;28;20024;-58
2023/10/21 08:21:26;;;;;;;10.30;1.70;;;15.40;99.90;;;;;;5068724;28;20063;-57
2023/10/21 08:23:51;;;;;;;11.48;1.98;;;15.40;99.90;;;;;;5070006;28;20028;-58
2023/10/21 08:26:17;;;;;;;14.25;1.80;;;15.50;99.90;;;;;;5068198;28;20443;-58
2023/10/21 08:28:43;;;;;;;8.98;1.95;;;15.40;99.90;;;;;;5070247;28;20095;-57
2023/10/21 08:31:08;;;;;;;7.95;1.63;;;15.50;99.90;;;;;;5087791;28;20103;-58
2023/10/21 08:33:34;;;;;;;11.63;2.35;;;15.50;99.90;;;;;;5069848;28;20120;-58
2023/10/21 08:36:00;;;;;;;24.63;3.10;;;15.50;99.90;;;;;;5069605;28;20063;-57
2023/10/21 08:38:25;;;;;;;14.48;2.40;;;15.50;99.90;;;;;;5087342;28;20107;-58
2023/10/21 08:40:51;;;;;;;16.33;3.60;;;15.50;99.90;;;;;;5069325;28;20047;-57
2023/10/21 08:43:17;;;;;;;27.90;3.63;;;15.60;99.90;;;;;;5087400;28;20032;-57
2023/10/21 08:45:43;;;;;;;18.90;3.60;;;15.60;99.90;;;;;;5052431;28;20036;-58
2023/10/21 08:48:10;;;;;;;30.60;4.40;;;15.60;99.90;;;;;;5069297;28;20035;-57
2023/10/21 08:50:35;;;;;;;46.10;5.40;;;15.60;99.90;;;;;;5068067;28;20020;-57
2023/10/21 08:53:01;;;;;;;35.88;4.97;;;15.70;99.90;;;;;;5046557;28;20076;-57
2023/10/21 08:55:26;;;;;;;38.30;4.40;;;15.70;99.90;;;;;;5051637;28;20033;-57
2023/10/21 08:57:53;;;;;;;20.30;3.97;;;15.70;99.90;;;;;;5063852;28;20021;-57
2023/10/21 09:00:19;;;;;;;28.77;3.70;;;15.70;99.90;;;;;;5067691;28;20048;-58
2023/10/21 09:02:44;;;;;;;31.60;4.10;;;15.80;99.90;;;;;;5091394;28;20062;-57
2023/10/21 09:05:11;;;;;;;36.47;4.50;;;15.80;99.90;;;;;;5067650;28;20067;-57
2023/10/21 09:07:47;;;;;;;30.67;4.22;;;15.80;99.90;;;;;;5068899;28;20425;-57
2023/10/21 09:10:13;;;;;;;51.13;5.90;;;15.80;99.90;;;;;;5068747;28;20025;-57
2023/10/21 09:12:39;;;;;;;73.97;7.93;;;15.80;99.90;;;;;;5068614;28;20051;-57
2023/10/21 09:15:05;;;;;;;71.85;7.75;;;15.90;99.90;;;;;;5055455;28;20472;-57
2023/10/21 09:17:38;;;;;;;49.80;7.85;;;15.90;99.90;;;;;;5105586;28;20036;-58
2023/10/21 09:20:13;;;;;;;68.40;9.27;;;15.90;99.90;;;;;;5043217;28;20036;-58
2023/10/21 09:22:42;;;;;;;88.82;10.20;;;16.00;99.90;;;;;;5094885;28;20039;-57
2023/10/21 09:25:15;;;;;;;102.13;10.77;;;16.00;99.90;;;;;;5071242;28;20031;-58
2023/10/21 09:27:44;;;;;;;119.50;12.93;;;16.10;99.90;;;;;;5047265;28;20028;-58
2023/10/21 09:30:17;;;;;;;85.13;10.18;;;16.10;99.90;;;;;;5049823;28;20032;-58
2023/10/21 09:32:43;;;;;;;74.55;9.98;;;16.10;99.90;;;;;;5049647;28;20032;-57
2023/10/21 09:35:25;;;;;;;77.93;10.27;;;16.20;99.90;;;;;;5061305;28;20035;-57
2023/10/21 09:37:50;;;;;;;68.53;9.00;;;16.20;99.90;;;;;;5060302;28;20111;-58
2023/10/21 09:40:16;;;;;;;60.85;8.45;;;16.30;99.90;;;;;;5052559;28;20074;-58
2023/10/21 09:42:42;;;;;;;89.38;11.38;;;16.30;99.90;;;;;;5071761;28;20036;-56
2023/10/21 09:45:10;;;;;;;82.28;10.70;;;16.30;99.90;;;;;;5080743;28;20020;-58
2023/10/21 09:47:37;;;;;;;83.05;11.05;;;16.40;99.90;;;;;;5085266;28;20029;-58
2023/10/21 09:50:05;;;;;;;79.53;11.30;;;16.40;99.90;;;;;;5051314;28;20025;-57
2023/10/21 09:52:34;;;;;;;114.32;13.60;;;16.40;99.90;;;;;;5053483;28;20088;-57
2023/10/21 09:55:07;;;;;;;107.63;12.57;;;16.50;99.90;;;;;;5063233;28;20029;-57
2023/10/21 09:57:35;;;;;;;124.53;14.38;;;16.50;99.90;;;;;;5066220;28;20027;-58
2023/10/21 10:00:01;;;;;;;92.85;13.75;;;16.60;99.90;;;;;;5072711;28;20032;-58
2023/10/21 10:02:26;;;;;;;82.72;10.63;;;16.60;99.90;;;;;;5070171;28;20162;-58
2023/10/21 10:04:53;;;;;;;79.05;10.70;;;16.60;99.90;;;;;;5051081;28;20740;-58
2023/10/21 10:07:19;;;;;;;79.55;12.15;;;16.60;99.90;;;;;;5071778;28;20033;-57
2023/10/21 10:09:44;;;;;;;114.82;13.18;;;16.60;99.90;;;;;;5051872;28;20092;-57
2023/10/21 10:12:12;;;;;;;137.27;15.27;;;16.70;99.90;;;;;;5066697;28;20029;-58
2023/10/21 10:14:37;;;;;;;119.22;14.25;;;16.70;99.90;;;;;;5054368;28;20021;-57
2023/10/21 10:17:06;;;;;;;113.97;14.27;;;16.70;99.90;;;;;;5048737;28;20097;-58
2023/10/21 10:19:43;;;;;;;112.32;15.43;;;16.80;99.90;;;;;;5078461;28;20039;-58
2023/10/21 10:22:20;;;;;;;128.38;16.13;;;16.80;99.90;;;;;;5076543;28;20032;-58
2023/10/21 10:25:05;;;;;;;88.78;14.00;;;16.80;99.90;;;;;;5078626;28;20024;-58
2023/10/21 10:27:40;;;;;;;116.03;16.23;;;16.80;99.90;;;;;;5076560;28;20028;-58
2023/10/21 10:30:14;;;;;;;130.57;14.98;;;16.80;99.90;;;;;;5060322;28;20017;-57
2023/10/21 10:32:47;;;;;;;154.65;17.38;;;16.90;99.90;;;;;;5058572;28;20312;-57
2023/10/21 10:35:29;;;;;;;126.10;14.98;;;16.90;99.90;;;;;;5056078;28;20336;-58
2023/10/21 10:37:55;;;;;;;156.15;17.85;;;16.90;99.90;;;;;;5058998;28;20493;-57
2023/10/21 10:40:36;;;;;;;153.98;18.08;;;16.90;99.90;;;;;;5075163;28;20050;-57
2023/10/21 10:43:03;;;;;;;132.52;16.63;;;17.00;99.90;;;;;;5045504;28;20025;-58
2023/10/21 10:45:34;;;;;;;109.60;16.55;;;17.00;99.90;;;;;;5056775;28;20036;-58
2023/10/21 10:48:02;;;;;;;111.97;14.00;;;17.00;99.90;;;;;;5058680;28;20024;-58
2023/10/21 10:50:29;;;;;;;142.52;16.83;;;17.00;99.90;;;;;;5078750;28;20049;-58
2023/10/21 10:52:55;;;;;;;135.95;16.63;;;17.10;99.90;;;;;;5048576;28;20024;-58
2023/10/21 10:55:21;;;;;;;127.57;15.85;;;17.10;99.90;;;;;;5056592;28;20067;-60
2023/10/21 10:57:48;;;;;;;132.63;18.13;;;17.20;99.90;;;;;;5062745;28;20032;-58
2023/10/21 11:00:20;;;;;;;141.73;20.05;;;17.20;99.80;;;;;;5057852;28;20044;-58
2023/10/21 11:02:49;;;;;;;114.90;16.17;;;17.20;99.60;;;;;;5053675;28;20029;-58
2023/10/21 11:05:16;;;;;;;212.27;23.38;;;17.20;99.20;;;;;;5047714;28;20028;-58
2023/10/21 11:07:41;;;;;;;152.80;18.80;;;17.20;99.10;;;;;;5057709;28;20029;-57
2023/10/21 11:10:07;;;;;;;155.35;18.90;;;17.20;98.90;;;;;;5077576;28;20048;-57
2023/10/21 11:12:33;;;;;;;157.15;18.88;;;17.30;98.90;;;;;;5059004;28;20480;-57
2023/10/21 11:15:01;;;;;;;158.82;19.95;;;17.30;98.90;;;;;;5060893;28;20476;-58
2023/10/21 11:17:26;;;;;;;153.00;18.42;;;17.30;98.80;;;;;;5077094;28;20083;-58
2023/10/21 11:19:52;;;;;;;136.32;18.08;;;17.30;98.80;;;;;;5034503;28;20051;-58
2023/10/21 11:22:21;;;;;;;158.98;19.10;;;17.30;98.60;;;;;;5059931;28;20040;-56
2023/10/21 11:24:47;;;;;;;190.77;20.10;;;17.30;98.60;;;;;;5060963;28;20028;-58
2023/10/21 11:27:13;;;;;;;153.05;18.40;;;17.30;98.60;;;;;;5059494;28;20025;-58
2023/10/21 11:29:39;;;;;;;131.30;16.67;;;17.30;98.50;;;;;;5057436;28;20031;-58
2023/10/21 11:32:09;;;;;;;122.03;15.90;;;17.30;98.60;;;;;;5058714;28;20025;-58
2023/10/21 11:34:35;;;;;;;139.93;16.73;;;17.30;98.20;;;;;;5062975;28;20058;-57
2023/10/21 11:37:00;;;;;;;124.63;15.93;;;17.30;98.40;;;;;;5079299;28;20035;-57
2023/10/21 11:39:26;;;;;;;129.68;17.15;;;17.40;98.20;;;;;;5060943;28;20079;-58
2023/10/21 11:41:53;;;;;;;122.30;16.27;;;17.40;98.20;;;;;;5055840;28;20025;-58
2023/10/21 11:44:25;;;;;;;133.50;16.23;;;17.40;98.30;;;;;;5063415;28;20024;-58
2023/10/21 11:46:50;;;;;;;140.10;17.92;;;17.40;98.10;;;;;;5052493;28;20048;-58
2023/10/21 11:49:16;;;;;;;153.90;19.25;;;17.40;97.90;;;;;;5079414;28;20384;-58
2023/10/21 11:51:49;;;;;;;158.32;19.67;;;17.40;97.80;;;;;;5070571;28;20440;-57
2023/10/21 11:54:32;;;;;;;145.65;17.77;;;17.40;97.90;;;;;;5067272;28;20027;-57
2023/10/21 12:32:52;;;;;;;182.20;21.20;;;17.60;99.00;;;;;;5071807;28;20059;-58
2023/10/21 12:38:23;;;;;;;180.02;21.48;;;17.60;99.10;;;;;;5063772;28;20036;-58
2023/10/21 12:41:37;;;;;;;204.20;25.25;;;17.70;99.20;;;;;;5074772;28;20041;-57
2023/10/21 12:43:39;;;;;;;231.32;25.83;;;17.70;99.30;;;;;;5065589;28;20064;-58
2023/10/21 12:46:22;;;;;;;232.43;25.33;;;17.70;99.20;;;;;;5072524;28;20473;-58
2023/10/21 12:48:51;;;;;;;217.50;23.58;;;17.80;99.30;;;;;;5067151;28;20031;-57
2023/10/21 12:51:18;;;;;;;184.27;24.17;;;17.80;99.50;;;;;;5060326;28;20021;-57
2023/10/21 12:53:44;;;;;;;184.15;21.35;;;17.80;99.30;;;;;;5066727;28;20019;-58
2023/10/21 12:56:09;;;;;;;176.25;22.98;;;17.80;99.30;;;;;;5058404;28;20096;-57
2023/10/21 12:58:35;;;;;;;230.43;26.00;;;17.70;99.10;;;;;;5067961;28;20027;-58
2023/10/21 13:01:04;;;;;;;248.00;27.05;;;17.80;99.20;;;;;;5051857;28;20087;-58
2023/10/21 13:03:30;;;;;;;224.88;27.73;;;17.80;99.40;;;;;;5032198;28;20437;-57
2023/10/21 13:05:56;;;;;;;268.25;31.65;;;17.80;99.60;;;;;;5078307;28;20066;-57
2023/10/21 13:08:22;;;;;;;268.08;31.38;;;17.80;99.90;;;;;;5067525;28;20028;-57
2023/10/21 13:10:47;;;;;;;279.15;31.50;;;17.90;99.90;;;;;;5083163;28;20078;-58
2023/10/21 13:13:16;;;;;;;260.42;29.02;;;17.90;99.90;;;;;;5048429;28;20021;-58
2023/10/21 13:15:43;;;;;;;328.02;32.95;;;17.90;99.90;;;;;;5048144;28;20032;-57